Time;durP1;ratioP1;P1;durP2;ratioP2;P2;SDS_P1;SDS_P2;PMS_P1;PMS_P2;Temp;Humidity;BMP_temperature;BMP_pressure;BME280_temperature;BME280_humidity;BME280_pressure;Samples;Min_cycle;Max_cycle;Signal;HPM_P1;HPM_P2
2021/05/08 00:01:10;;;;;;;;;;;7.10;42.10;;;;;;5052343;28;19913;-82
2021/05/08 00:03:44;;;;;;;;;;;7.10;42.20;;;;;;5054710;28;19920;-83
2021/05/08 00:06:23;;;;;;;;;;;7.00;42.10;;;;;;5056442;28;19940;-82
2021/05/08 00:09:18;;;;;;;;;;;7.00;42.20;;;;;;5055712;28;19920;-83
2021/05/08 00:12:06;;;;;;;;;;;6.90;42.20;;;;;;5048066;28;19941;-84
2021/05/08 00:15:00;;;;;;;;;;;6.90;42.30;;;;;;5041806;28;19913;-83
2021/05/08 00:17:40;;;;;;;;;;;6.80;42.30;;;;;;5071068;28;19927;-81
2021/05/08 00:20:28;;;;;;;;;;;6.80;42.40;;;;;;5054448;28;20288;-83
2021/05/08 00:22:59;;;;;;;;;;;6.80;42.40;;;;;;5041989;28;19914;-81
2021/05/08 00:25:40;;;;;;;;;;;;;;;;;;;;;
2021/05/08 00:28:35;;;;;;;;;;;6.70;42.50;;;;;;5051800;28;20338;-82
2021/05/08 00:31:06;;;;;;;;;;;6.70;42.50;;;;;;5057534;28;20515;-81
2021/05/08 00:33:32;;;;;;;;;;;6.60;42.50;;;;;;5057250;28;19995;-82
2021/05/08 00:35:57;;;;;;;;;;;6.60;42.50;;;;;;5056690;28;19979;-81
2021/05/08 00:39:02;;;;;;;;;;;6.50;42.50;;;;;;5056342;28;19921;-81
2021/05/08 00:41:32;;;;;;;;;;;6.50;42.60;;;;;;5055846;28;19912;-81
2021/05/08 00:46:52;;;;;;;;;;;6.40;42.70;;;;;;5046270;28;20505;-80
2021/05/08 00:49:49;;;;;;;;;;;;;;;;;;;;;
2021/05/08 00:55:30;;;;;;;;;;;6.40;42.90;;;;;;5033898;28;20019;-83
2021/05/08 01:00:50;;;;;;;;;;;6.30;42.90;;;;;;5047932;28;19913;-82
2021/05/08 01:03:30;;;;;;;;;;;6.30;43.00;;;;;;5055752;28;20389;-81
2021/05/08 01:05:59;;;;;;;;;;;6.30;43.10;;;;;;5054959;28;19920;-81
2021/05/08 01:11:19;;;;;;;;;;;6.30;43.20;;;;;;5051809;28;19920;-82
2021/05/08 01:14:09;;;;;;;;;;;6.20;43.20;;;;;;5061381;28;19977;-82
2021/05/08 01:17:04;;;;;;;;;;;6.10;43.20;;;;;;5050742;28;19926;-82
2021/05/08 01:22:25;;;;;;;;;;;6.00;43.70;;;;;;5024263;28;19922;-82
2021/05/08 01:30:57;;;;;;;;;;;5.90;44.10;;;;;;5056176;28;19915;-83
2021/05/08 01:33:41;;;;;;;;;;;5.90;44.20;;;;;;5053866;28;19959;-82
2021/05/08 01:42:09;;;;;;;;;;;;;;;;;;;;;
2021/05/08 01:44:56;;;;;;;;;;;5.80;44.50;;;;;;5050735;28;20391;-82
2021/05/08 01:50:30;;;;;;;;;;;5.70;44.90;;;;;;5042551;28;20021;-82
2021/05/08 01:53:04;;;;;;;;;;;5.60;45.00;;;;;;5044539;28;19920;-82
2021/05/08 01:56:11;;;;;;;;;;;5.60;45.00;;;;;;5054287;28;19962;-82
2021/05/08 01:58:49;;;;;;;;;;;5.60;45.00;;;;;;5054316;28;20430;-81
2021/05/08 02:07:12;;;;;;;;;;;5.40;45.00;;;;;;5051932;28;19912;-80
2021/05/08 02:10:07;;;;;;;;;;;5.30;45.00;;;;;;5052901;28;19940;-82
2021/05/08 02:15:28;;;;;;;;;;;5.20;45.10;;;;;;5022332;28;20269;-81
2021/05/08 02:21:11;;;;;;;;;;;5.10;45.80;;;;;;5050209;28;20274;-82
2021/05/08 02:23:42;;;;;;;;;;;5.10;46.40;;;;;;5034097;28;19917;-81
2021/05/08 02:29:14;;;;;;;;;;;5.20;47.00;;;;;;4990673;28;20441;-82
2021/05/08 02:35:12;;;;;;;;;;;5.30;47.00;;;;;;4991162;28;20467;-82
2021/05/08 02:37:56;;;;;;;;;;;;;;;;;;;;;
2021/05/08 02:40:48;;;;;;;;;;;5.50;47.00;;;;;;5021383;23;19925;-83
2021/05/08 02:43:19;;;;;;;;;;;5.60;46.90;;;;;;5034548;28;19916;-82
2021/05/08 02:52:07;;;;;;;;;;;5.70;47.30;;;;;;5015805;28;19913;-81
2021/05/08 02:55:01;;;;;;;;;;;5.70;47.40;;;;;;5019252;28;19913;-81
2021/05/08 03:01:22;;;;;;;;;;;5.70;47.30;;;;;;4938505;29;19943;-81
2021/05/08 03:03:55;;;;;;;;;;;5.70;47.30;;;;;;4899752;29;19915;-82
2021/05/08 03:07:02;;;;;;;;;;;;;;;;;;;;;
2021/05/08 03:25:53;;;;;;;;;;;5.40;47.40;;;;;;4998086;28;20405;-83
2021/05/08 03:31:49;;;;;;;;;;;5.30;47.40;;;;;;4993746;28;20337;-83
2021/05/08 03:34:53;;;;;;;;;;;;;;;;;;;;;
2021/05/08 03:44:10;;;;;;;;;;;4.90;47.60;;;;;;4958270;28;19918;-82
2021/05/08 03:46:35;;;;;;;;;;;4.80;47.70;;;;;;5027606;28;20363;-82
2021/05/08 03:49:34;;;;;;;;;;;4.70;47.90;;;;;;5020171;28;19921;-82
2021/05/08 03:54:59;;;;;;;;;;;4.80;48.20;;;;;;4993789;28;20464;-80
2021/05/08 03:57:47;;;;;;;;;;;4.90;48.30;;;;;;5017639;28;20008;-82
2021/05/08 04:00:18;;;;;;;;;;;5.00;48.40;;;;;;5020619;28;20333;-80
2021/05/08 04:02:44;;;;;;;;;;;5.10;48.40;;;;;;5000534;28;20399;-82
2021/05/08 04:05:29;;;;;;;;;;;5.20;48.30;;;;;;5016618;28;19977;-82
2021/05/08 04:08:27;;;;;;;;;;;;;;;;;;;;;
2021/05/08 04:10:56;;;;;;;;;;;5.30;48.20;;;;;;5044562;22;20404;-82
2021/05/08 04:13:42;;;;;;;;;;;5.40;48.20;;;;;;5044575;28;20348;-82
2021/05/08 04:16:07;;;;;;;;;;;5.50;48.20;;;;;;5061851;28;20468;-84
2021/05/08 04:19:02;;;;;;;;;;;5.60;48.10;;;;;;5079173;28;19920;-83
2021/05/08 04:21:49;;;;;;;;;;;5.60;48.00;;;;;;5063845;28;19976;-81
2021/05/08 04:24:24;;;;;;;;;;;5.70;48.00;;;;;;5040264;28;19913;-81
2021/05/08 04:26:53;;;;;;;;;;;5.80;47.90;;;;;;5038071;28;19913;-82
2021/05/08 04:29:30;;;;;;;;;;;5.80;47.80;;;;;;5036848;28;19909;-82
2021/05/08 04:32:07;;;;;;;;;;;5.80;47.80;;;;;;5017139;28;19952;-82
2021/05/08 04:37:51;;;;;;;;;;;;;;;;;;;;;
2021/05/08 04:43:43;;;;;;;;;;;6.10;48.50;;;;;;5036214;28;19909;-82
2021/05/08 04:46:36;;;;;;;;;;;6.10;48.50;;;;;;5025439;28;19963;-81
2021/05/08 04:49:19;;;;;;;;;;;6.20;48.70;;;;;;5032163;28;20278;-82
2021/05/08 04:54:42;;;;;;;;;;;6.50;49.30;;;;;;4975564;28;20008;-82
2021/05/08 05:03:32;;;;;;;;;;;;;;;;;;;;;
2021/05/08 05:05:58;;;;;;;;;;;7.30;49.70;;;;;;5033685;28;19920;-82
2021/05/08 05:08:52;;;;;;;;;;;7.50;49.70;;;;;;5035441;28;20004;-81
2021/05/08 05:11:26;;;;;;;;;;;7.70;49.60;;;;;;5035139;28;20286;-82
2021/05/08 05:13:55;;;;;;;;;;;7.90;49.60;;;;;;5035587;28;19913;-80
2021/05/08 05:17:05;;;;;;;;;;;8.00;49.60;;;;;;5034287;28;20015;-81
2021/05/08 05:19:52;;;;;;;;;;;8.10;49.90;;;;;;5012589;28;19925;-80
2021/05/08 05:25:30;;;;;;;;;;;8.20;50.20;;;;;;5028583;28;19909;-82
2021/05/08 05:28:47;;;;;;;;;;;;;;;;;;;;;
2021/05/08 05:31:29;;;;;;;;;;;8.40;50.60;;;;;;5030704;28;19963;-81
2021/05/08 05:33:57;;;;;;;;;;;8.40;51.50;;;;;;5036628;28;19916;-83
2021/05/08 05:36:51;;;;;;;;;;;;;;;;;;;;;
2021/05/08 05:39:42;;;;;;;;;;;8.60;51.40;;;;;;5033021;28;20015;-82
2021/05/08 05:42:18;;;;;;;;;;;8.70;51.50;;;;;;5056903;28;19909;-83
2021/05/08 05:44:43;;;;;;;;;;;8.80;51.60;;;;;;5046185;28;20308;-83
2021/05/08 05:47:35;;;;;;;;;;;8.90;51.60;;;;;;5047488;28;19917;-84
2021/05/08 05:50:10;;;;;;;;;;;;;;;;;;;;;
2021/05/08 05:53:15;;;;;;;;;;;;;;;;;;;;;
2021/05/08 05:55:58;;;;;;;;;;;9.10;52.40;;;;;;5045786;28;19945;-83
2021/05/08 06:01:29;;;;;;;;;;;9.30;52.40;;;;;;5041552;28;19913;-86
2021/05/08 06:04:07;;;;;;;;;;;9.50;52.40;;;;;;5045276;28;19935;-83
2021/05/08 06:06:40;;;;;;;;;;;9.70;52.40;;;;;;5047442;28;19909;-85
2021/05/08 06:09:25;;;;;;;;;;;10.10;51.40;;;;;;5046204;28;19971;-84
2021/05/08 06:12:13;;;;;;;;;;;;;;;;;;;;;
2021/05/08 06:14:50;;;;;;;;;;;11.40;51.10;;;;;;5042168;28;19949;-87
2021/05/08 06:17:18;;;;;;;;;;;12.70;50.00;;;;;;5043296;28;19932;-86
2021/05/08 06:19:44;;;;;;;;;;;15.10;48.40;;;;;;5045702;28;19913;-84
2021/05/08 06:22:12;;;;;;;;;;;17.40;46.40;;;;;;5027283;28;19909;-85
2021/05/08 06:24:37;;;;;;;;;;;19.00;45.10;;;;;;5036834;28;19916;-85
2021/05/08 06:27:05;;;;;;;;;;;20.70;43.90;;;;;;5047748;28;19952;-87
2021/05/08 06:29:36;;;;;;;;;;;21.50;42.70;;;;;;5037935;28;20015;-85
2021/05/08 06:32:09;;;;;;;;;;;20.80;43.10;;;;;;5031846;28;19916;-84
2021/05/08 06:34:34;;;;;;;;;;;20.50;43.70;;;;;;5066447;28;19921;-85
2021/05/08 06:37:02;;;;;;;;;;;20.20;44.10;;;;;;5052635;28;19913;-85
2021/05/08 06:39:28;;;;;;;;;;;20.00;44.20;;;;;;5052833;28;19916;-85
2021/05/08 06:42:17;;;;;;;;;;;19.70;44.30;;;;;;5053189;28;19917;-85
2021/05/08 06:44:42;;;;;;;;;;;19.90;44.40;;;;;;5048740;28;19928;-86
2021/05/08 06:47:17;;;;;;;;;;;20.40;44.10;;;;;;5047355;28;19917;-86
2021/05/08 06:52:58;;;;;;;;;;;20.90;43.40;;;;;;5042993;28;19940;-85
2021/05/08 06:55:43;;;;;;;;;;;19.70;43.00;;;;;;5052219;28;19940;-84
2021/05/08 06:58:25;;;;;;;;;;;18.30;44.10;;;;;;5053620;28;19913;-83
2021/05/08 07:00:50;;;;;;;;;;;17.10;45.10;;;;;;5060708;28;19909;-86
2021/05/08 07:03:23;;;;;;;;;;;16.20;45.70;;;;;;5061289;28;19913;-84
2021/05/08 07:05:59;;;;;;;;;;;15.50;46.00;;;;;;5044627;28;19991;-84
2021/05/08 07:08:48;;;;;;;;;;;15.10;46.40;;;;;;5047458;28;19975;-83
2021/05/08 07:11:18;;;;;;;;;;;14.80;46.70;;;;;;5045401;28;19917;-84
2021/05/08 07:13:44;;;;;;;;;;;14.50;46.90;;;;;;5044090;28;20294;-84
2021/05/08 07:16:09;;;;;;;;;;;14.20;47.00;;;;;;5043970;28;20008;-84
2021/05/08 07:18:37;;;;;;;;;;;14.10;47.40;;;;;;5044479;28;19958;-84
2021/05/08 07:21:02;;;;;;;;;;;14.00;47.50;;;;;;5042603;28;19952;-83
2021/05/08 07:23:28;;;;;;;;;;;14.00;47.60;;;;;;5039072;28;19913;-82
2021/05/08 07:25:53;;;;;;;;;;;14.00;47.60;;;;;;5046793;28;19913;-83
2021/05/08 07:28:20;;;;;;;;;;;14.00;47.60;;;;;;5038982;28;19928;-86
2021/05/08 07:30:47;;;;;;;;;;;14.20;47.70;;;;;;5042202;28;20003;-83
2021/05/08 07:33:13;;;;;;;;;;;14.40;47.70;;;;;;5039534;28;19913;-83
2021/05/08 07:35:39;;;;;;;;;;;14.60;47.60;;;;;;5041468;28;19913;-82
2021/05/08 07:38:05;;;;;;;;;;;14.90;47.50;;;;;;5039675;28;19951;-82
2021/05/08 07:40:31;;;;;;;;;;;15.00;47.50;;;;;;5042738;28;20000;-82
2021/05/08 07:42:59;;;;;;;;;;;15.20;47.60;;;;;;5040694;28;19917;-82
2021/05/08 07:45:25;;;;;;;;;;;15.30;47.60;;;;;;5042501;28;19997;-82
2021/05/08 07:47:51;;;;;;;;;;;15.60;47.60;;;;;;5043246;28;19968;-82
2021/05/08 07:50:16;;;;;;;;;;;15.90;47.50;;;;;;5042121;28;20482;-84
2021/05/08 07:52:42;;;;;;;;;;;16.20;47.50;;;;;;5051310;28;20361;-82
2021/05/08 07:55:07;;;;;;;;;;;16.30;48.10;;;;;;5043491;28;19964;-82
2021/05/08 07:57:33;;;;;;;;;;;16.40;47.50;;;;;;5041714;28;20008;-82
2021/05/08 08:00:01;;;;;;;;;;;16.50;47.50;;;;;;5051186;28;19963;-82
2021/05/08 08:02:26;;;;;;;;;;;16.60;47.30;;;;;;5042112;28;20335;-82
2021/05/08 08:04:52;;;;;;;;;;;16.60;47.20;;;;;;5036546;28;20024;-83
2021/05/08 08:07:17;;;;;;;;;;;17.10;47.20;;;;;;5040056;28;19917;-84
2021/05/08 08:09:43;;;;;;;;;;;17.70;46.80;;;;;;5039807;28;19909;-84
2021/05/08 08:12:11;;;;;;;;;;;17.90;46.50;;;;;;5038874;28;19917;-84
2021/05/08 08:14:37;;;;;;;;;;;18.20;46.30;;;;;;5040553;28;19921;-83
2021/05/08 08:17:03;;;;;;;;;;;18.60;46.00;;;;;;5039771;28;20011;-84
2021/05/08 08:19:28;;;;;;;;;;;18.80;45.70;;;;;;5038369;28;19945;-83
2021/05/08 08:21:54;;;;;;;;;;;19.10;45.40;;;;;;5040131;28;19913;-84
2021/05/08 08:24:19;;;;;;;;;;;19.70;45.20;;;;;;5027970;28;19913;-83
2021/05/08 08:26:44;;;;;;;;;;;20.10;44.70;;;;;;5041146;28;19916;-83
2021/05/08 08:29:10;;;;;;;;;;;20.30;44.50;;;;;;5038257;28;19913;-84
2021/05/08 08:31:35;;;;;;;;;;;20.10;44.40;;;;;;5040137;28;19909;-82
2021/05/08 08:34:01;;;;;;;;;;;19.80;44.80;;;;;;5040129;28;20349;-84
2021/05/08 08:36:26;;;;;;;;;;;19.80;45.00;;;;;;5038947;28;19917;-82
2021/05/08 08:38:52;;;;;;;;;;;20.30;44.80;;;;;;5045778;28;19956;-84
2021/05/08 08:41:17;;;;;;;;;;;20.40;44.20;;;;;;5034957;28;19914;-84
2021/05/08 08:43:45;;;;;;;;;;;20.20;44.00;;;;;;5022625;28;19920;-83
2021/05/08 08:46:11;;;;;;;;;;;20.00;43.70;;;;;;5037091;28;19913;-83
2021/05/08 08:48:38;;;;;;;;;;;20.30;44.00;;;;;;5038195;28;19928;-84
2021/05/08 08:51:04;;;;;;;;;;;21.70;43.60;;;;;;5040782;28;19912;-83
2021/05/08 08:53:29;;;;;;;;;;;22.40;42.00;;;;;;5026366;28;19913;-83
2021/05/08 08:55:57;;;;;;;;;;;22.90;41.60;;;;;;5021743;28;20428;-84
2021/05/08 08:58:35;;;;;;;;;;;24.00;41.70;;;;;;5031872;28;19967;-85
2021/05/08 09:01:03;;;;;;;;;;;25.80;40.70;;;;;;5034877;28;19909;-84
2021/05/08 09:03:28;;;;;;;;;;;27.60;39.50;;;;;;5039853;28;22260;-84
2021/05/08 09:05:54;;;;;;;;;;;28.60;38.30;;;;;;5043492;28;19937;-83
2021/05/08 09:08:19;;;;;;;;;;;29.20;35.90;;;;;;5048078;28;19913;-84
2021/05/08 09:10:45;;;;;;;;;;;29.40;34.30;;;;;;5035745;28;19917;-85
2021/05/08 09:13:15;;;;;;;;;;;29.90;34.10;;;;;;5048858;28;20373;-85
2021/05/08 09:15:41;;;;;;;;;;;30.20;33.30;;;;;;5042265;28;19948;-84
2021/05/08 09:18:08;;;;;;;;;;;30.00;32.30;;;;;;5039424;28;19917;-85
2021/05/08 09:20:50;;;;;;;;;;;29.30;32.10;;;;;;5040079;28;19916;-84
2021/05/08 09:23:29;;;;;;;;;;;28.60;33.00;;;;;;5030211;28;19940;-84
2021/05/08 09:26:04;;;;;;;;;;;28.50;32.30;;;;;;5045648;28;19914;-84
2021/05/08 09:28:31;;;;;;;;;;;27.90;32.30;;;;;;5033292;28;19917;-84
2021/05/08 09:30:57;;;;;;;;;;;28.00;32.30;;;;;;5032580;28;19918;-84
2021/05/08 09:33:24;;;;;;;;;;;28.40;32.70;;;;;;5040289;28;19912;-85
2021/05/08 09:35:58;;;;;;;;;;;28.50;32.70;;;;;;5039197;28;20008;-85
2021/05/08 09:38:29;;;;;;;;;;;28.30;32.70;;;;;;5036878;28;19914;-85
2021/05/08 09:40:54;;;;;;;;;;;28.60;32.70;;;;;;5046876;28;20028;-85
2021/05/08 09:43:21;;;;;;;;;;;28.20;32.40;;;;;;5048238;28;19916;-85
2021/05/08 09:45:48;;;;;;;;;;;27.80;33.00;;;;;;5032329;28;19917;-85
2021/05/08 09:48:18;;;;;;;;;;;27.70;33.20;;;;;;5040625;28;20077;-85
2021/05/08 09:50:43;;;;;;;;;;;27.70;33.10;;;;;;5035499;28;19988;-85
2021/05/08 09:53:09;;;;;;;;;;;27.50;32.60;;;;;;5037364;28;19952;-84
2021/05/08 09:55:35;;;;;;;;;;;27.30;32.80;;;;;;5038195;28;20011;-86
2021/05/08 09:58:05;;;;;;;;;;;27.40;32.20;;;;;;5039467;28;20206;-85
2021/05/08 10:00:31;;;;;;;;;;;27.00;31.30;;;;;;5035709;28;19920;-84
2021/05/08 10:03:01;;;;;;;;;;;26.20;32.10;;;;;;5038454;28;19956;-84
2021/05/08 10:05:26;;;;;;;;;;;25.90;31.70;;;;;;5034201;28;19941;-84
2021/05/08 10:07:52;;;;;;;;;;;25.80;31.60;;;;;;5023227;28;19913;-84
2021/05/08 10:10:19;;;;;;;;;;;25.90;31.90;;;;;;5023449;28;19917;-85
2021/05/08 10:12:45;;;;;;;;;;;25.90;31.80;;;;;;5028596;28;19968;-85
2021/05/08 10:15:10;;;;;;;;;;;25.70;31.80;;;;;;5040420;28;20392;-84
2021/05/08 10:17:37;;;;;;;;;;;25.30;31.90;;;;;;5024672;28;19976;-84
2021/05/08 10:20:07;;;;;;;;;;;25.10;32.20;;;;;;5024658;28;19910;-84
2021/05/08 10:22:34;;;;;;;;;;;24.90;32.40;;;;;;5024576;28;19909;-84
2021/05/08 10:25:02;;;;;;;;;;;24.90;32.60;;;;;;5039498;28;20127;-84
2021/05/08 10:27:27;;;;;;;;;;;24.80;32.50;;;;;;5043641;28;19917;-84
2021/05/08 10:29:53;;;;;;;;;;;24.60;32.40;;;;;;5042300;28;20012;-85
2021/05/08 10:32:19;;;;;;;;;;;24.50;32.60;;;;;;5045198;28;19916;-84
2021/05/08 10:34:58;;;;;;;;;;;24.40;32.50;;;;;;5044899;28;20000;-84
2021/05/08 10:37:24;;;;;;;;;;;24.10;32.40;;;;;;5044318;28;20027;-84
2021/05/08 10:39:59;;;;;;;;;;;23.80;32.40;;;;;;5034174;28;19918;-84
2021/05/08 10:42:29;;;;;;;;;;;23.40;32.50;;;;;;5022806;28;19976;-84
2021/05/08 10:44:54;;;;;;;;;;;22.90;32.70;;;;;;5020726;28;20329;-85
2021/05/08 10:47:20;;;;;;;;;;;22.50;32.90;;;;;;5023600;28;19918;-84
2021/05/08 10:50:05;;;;;;;;;;;22.00;33.10;;;;;;5023888;28;19937;-84
2021/05/08 10:52:49;;;;;;;;;;;21.60;33.30;;;;;;5023577;28;19910;-84
2021/05/08 10:55:21;;;;;;;;;;;21.40;33.60;;;;;;5053824;28;19914;-85
2021/05/08 10:58:07;;;;;;;;;;;21.20;33.70;;;;;;5023200;28;19948;-84
2021/05/08 11:00:42;;;;;;;;;;;21.10;33.90;;;;;;5041032;28;19909;-83
2021/05/08 11:03:08;;;;;;;;;;;20.90;34.10;;;;;;5041103;28;19944;-84
2021/05/08 11:05:39;;;;;;;;;;;20.60;34.20;;;;;;5041648;28;19917;-84
2021/05/08 11:08:23;;;;;;;;;;;20.50;34.50;;;;;;5041776;28;19920;-84
2021/05/08 11:11:08;;;;;;;;;;;20.40;34.70;;;;;;5041511;28;19921;-83
2021/05/08 11:13:42;;;;;;;;;;;20.30;34.90;;;;;;5043167;28;19996;-83
2021/05/08 11:16:08;;;;;;;;;;;20.50;35.10;;;;;;5029026;28;19949;-83
2021/05/08 11:18:43;;;;;;;;;;;20.60;35.10;;;;;;5023337;28;19921;-83
2021/05/08 11:21:08;;;;;;;;;;;20.50;35.20;;;;;;5019948;28;20317;-83
2021/05/08 11:23:44;;;;;;;;;;;20.40;35.40;;;;;;5035418;28;19928;-84
2021/05/08 11:26:28;;;;;;;;;;;20.30;35.60;;;;;;5053332;28;19915;-84
2021/05/08 11:29:01;;;;;;;;;;;20.00;35.80;;;;;;5047033;28;19952;-84
2021/05/08 11:31:27;;;;;;;;;;;19.70;36.00;;;;;;5046987;28;19956;-85
2021/05/08 11:34:03;;;;;;;;;;;19.40;36.30;;;;;;5026555;28;19917;-84
2021/05/08 11:36:28;;;;;;;;;;;19.10;36.50;;;;;;5025241;28;19945;-85
2021/05/08 11:39:06;;;;;;;;;;;19.00;36.90;;;;;;5026224;28;19917;-85
2021/05/08 11:41:31;;;;;;;;;;;18.80;37.00;;;;;;5043166;28;19910;-84
2021/05/08 11:43:58;;;;;;;;;;;18.80;37.20;;;;;;5029061;28;19897;-85
2021/05/08 11:46:24;;;;;;;;;;;18.80;37.50;;;;;;5027850;28;19909;-84
2021/05/08 11:48:50;;;;;;;;;;;18.70;37.90;;;;;;5025923;28;19933;-85
2021/05/08 11:51:15;;;;;;;;;;;18.60;38.90;;;;;;5026238;28;20504;-85
2021/05/08 11:53:41;;;;;;;;;;;18.50;40.20;;;;;;5026016;28;19911;-85
2021/05/08 11:56:06;;;;;;;;;;;18.30;40.90;;;;;;5025777;28;19913;-84
2021/05/08 11:58:32;;;;;;;;;;;18.20;41.50;;;;;;5026556;28;19909;-84
2021/05/08 12:00:57;;;;;;;;;;;18.10;41.70;;;;;;5025708;28;19933;-86
2021/05/08 12:03:24;;;;;;;;;;;18.20;42.20;;;;;;5027364;28;19917;-85
2021/05/08 12:05:51;;;;;;;;;;;18.40;42.30;;;;;;5025942;28;19941;-84
2021/05/08 12:08:20;;;;;;;;;;;18.70;42.80;;;;;;5044325;28;19917;-84
2021/05/08 12:10:46;;;;;;;;;;;18.90;42.60;;;;;;5045635;28;19920;-85
2021/05/08 12:13:12;;;;;;;;;;;19.00;42.70;;;;;;5045319;28;19909;-85
2021/05/08 12:15:40;;;;;;;;;;;18.90;42.80;;;;;;5046220;28;19916;-86
2021/05/08 12:18:10;;;;;;;;;;;18.70;43.00;;;;;;5047061;28;19945;-85
2021/05/08 12:20:46;;;;;;;;;;;18.50;43.10;;;;;;5046448;28;19916;-86
2021/05/08 12:23:12;;;;;;;;;;;18.20;43.40;;;;;;5040403;28;19936;-85
2021/05/08 12:25:38;;;;;;;;;;;18.00;43.80;;;;;;5052770;28;19932;-85
2021/05/08 12:28:13;;;;;;;;;;;17.80;44.00;;;;;;5043793;28;19913;-85
2021/05/08 12:30:39;;;;;;;;;;;17.70;44.10;;;;;;5040548;28;19944;-81
2021/05/08 12:33:04;;;;;;;;;;;17.80;44.30;;;;;;5039184;28;19916;-80
2021/05/08 12:35:30;;;;;;;;;;;17.80;44.90;;;;;;5040380;28;19917;-80
2021/05/08 12:37:55;;;;;;;;;;;17.70;45.10;;;;;;5037870;28;20436;-85
2021/05/08 12:40:30;;;;;;;;;;;17.50;45.30;;;;;;5039689;28;19909;-84
2021/05/08 12:42:56;;;;;;;;;;;17.30;45.70;;;;;;5023266;28;19920;-84
2021/05/08 12:45:21;;;;;;;;;;;17.20;46.10;;;;;;5019862;28;19909;-84
2021/05/08 12:47:47;;;;;;;;;;;17.00;46.20;;;;;;5034053;28;20332;-84
2021/05/08 12:50:23;;;;;;;;;;;16.90;46.30;;;;;;5019585;28;19933;-84
2021/05/08 12:53:05;;;;;;;;;;;16.80;46.70;;;;;;5035336;28;19910;-84
2021/05/08 12:55:35;;;;;;;;;;;17.00;47.40;;;;;;5019890;28;19936;-83
2021/05/08 12:58:08;;;;;;;;;;;17.30;47.40;;;;;;5018371;28;19913;-84
2021/05/08 13:00:41;;;;;;;;;;;17.50;47.30;;;;;;5038749;28;19913;-84
2021/05/08 13:03:21;;;;;;;;;;;17.80;47.10;;;;;;5039053;28;20304;-84
2021/05/08 13:05:47;;;;;;;;;;;18.20;46.90;;;;;;5039724;28;19909;-84
2021/05/08 13:08:13;;;;;;;;;;;18.50;46.40;;;;;;5037658;28;20392;-84
2021/05/08 13:10:39;;;;;;;;;;;18.80;46.10;;;;;;5039576;28;19956;-84
2021/05/08 13:13:15;;;;;;;;;;;19.00;45.90;;;;;;5055098;28;19939;-84
2021/05/08 13:15:41;;;;;;;;;;;19.20;45.70;;;;;;5032730;28;19919;-84
2021/05/08 13:18:08;;;;;;;;;;;19.80;45.50;;;;;;5022894;28;20437;-84
2021/05/08 13:20:38;;;;;;;;;;;20.50;45.00;;;;;;5018987;28;19910;-84
2021/05/08 13:23:05;;;;;;;;;;;20.90;44.40;;;;;;5019726;28;19910;-84
2021/05/08 13:25:30;;;;;;;;;;;21.10;44.00;;;;;;5026327;28;20289;-84
2021/05/08 13:27:56;;;;;;;;;;;21.30;43.80;;;;;;5040093;28;19924;-84
2021/05/08 13:30:22;;;;;;;;;;;21.50;43.80;;;;;;5039807;28;19915;-84
2021/05/08 13:32:54;;;;;;;;;;;21.60;43.60;;;;;;5034220;28;20019;-85
2021/05/08 13:35:21;;;;;;;;;;;21.80;44.20;;;;;;5038308;28;19949;-85
2021/05/08 13:37:46;;;;;;;;;;;21.80;43.40;;;;;;5038236;28;20375;-84
2021/05/08 13:40:13;;;;;;;;;;;21.60;43.40;;;;;;5037403;28;19909;-84
2021/05/08 13:42:39;;;;;;;;;;;21.50;43.30;;;;;;5037003;28;20335;-84
2021/05/08 13:45:05;;;;;;;;;;;21.30;43.20;;;;;;5038907;28;19932;-84
2021/05/08 13:47:31;;;;;;;;;;;21.20;43.20;;;;;;5036508;28;19913;-84
2021/05/08 13:49:57;;;;;;;;;;;21.20;43.20;;;;;;5019332;28;20000;-83
2021/05/08 13:52:23;;;;;;;;;;;21.30;43.70;;;;;;5016884;28;19921;-84
2021/05/08 13:54:49;;;;;;;;;;;21.60;43.00;;;;;;5020054;28;19916;-84
2021/05/08 13:57:15;;;;;;;;;;;21.80;42.90;;;;;;5020444;28;19910;-84
2021/05/08 13:59:41;;;;;;;;;;;21.80;42.70;;;;;;5020495;28;19910;-84
2021/05/08 14:02:06;;;;;;;;;;;21.50;42.70;;;;;;5020426;28;20397;-84
2021/05/08 14:04:32;;;;;;;;;;;21.20;42.80;;;;;;5018034;28;19916;-84
2021/05/08 14:06:57;;;;;;;;;;;20.90;43.00;;;;;;5023037;28;19916;-84
2021/05/08 14:09:23;;;;;;;;;;;20.70;43.20;;;;;;5018327;28;19913;-84
2021/05/08 14:11:48;;;;;;;;;;;20.50;43.40;;;;;;5033567;28;19917;-84
2021/05/08 14:14:14;;;;;;;;;;;20.30;43.50;;;;;;5017725;28;20020;-84
2021/05/08 14:16:39;;;;;;;;;;;20.20;43.60;;;;;;5019759;28;19910;-84
2021/05/08 14:19:05;;;;;;;;;;;20.20;43.70;;;;;;5019642;28;19910;-84
2021/05/08 14:21:30;;;;;;;;;;;20.20;43.80;;;;;;5026549;28;19913;-84
2021/05/08 14:23:56;;;;;;;;;;;20.20;43.90;;;;;;5039817;28;19917;-84
2021/05/08 14:26:21;;;;;;;;;;;20.20;43.90;;;;;;5053474;28;19910;-84
2021/05/08 14:28:47;;;;;;;;;;;20.10;43.90;;;;;;5039597;28;20297;-84
2021/05/08 14:31:12;;;;;;;;;;;20.00;44.00;;;;;;5040101;28;19909;-85
2021/05/08 14:33:38;;;;;;;;;;;19.90;44.30;;;;;;5039192;28;19909;-84
2021/05/08 14:36:03;;;;;;;;;;;19.80;44.40;;;;;;5038097;28;19909;-84
2021/05/08 14:38:29;;;;;;;;;;;19.70;44.80;;;;;;5021235;28;20326;-84
2021/05/08 14:40:54;;;;;;;;;;;19.70;45.00;;;;;;5018695;28;19910;-84
2021/05/08 14:43:20;;;;;;;;;;;19.70;45.20;;;;;;5018503;28;19917;-85
2021/05/08 14:45:45;;;;;;;;;;;19.70;45.30;;;;;;5034846;28;20467;-84
2021/05/08 14:48:11;;;;;;;;;;;19.70;45.30;;;;;;5022302;28;19927;-84
2021/05/08 14:50:36;;;;;;;;;;;19.70;46.00;;;;;;5025839;28;19910;-84
2021/05/08 14:53:03;;;;;;;;;;;19.90;45.40;;;;;;5023755;28;19914;-85
2021/05/08 14:55:29;;;;;;;;;;;20.00;45.30;;;;;;5055858;28;19919;-84
2021/05/08 14:57:54;;;;;;;;;;;20.10;45.30;;;;;;5041767;28;19915;-84
2021/05/08 15:00:21;;;;;;;;;;;20.20;45.40;;;;;;5042762;28;19949;-84
2021/05/08 15:02:47;;;;;;;;;;;20.20;45.40;;;;;;5043277;28;19909;-84
2021/05/08 15:05:13;;;;;;;;;;;20.30;45.40;;;;;;5043753;28;19923;-85
2021/05/08 15:07:38;;;;;;;;;;;20.40;45.50;;;;;;5042987;28;19913;-85
2021/05/08 15:10:06;;;;;;;;;;;20.50;45.50;;;;;;5039528;28;19925;-84
2021/05/08 15:12:31;;;;;;;;;;;20.60;45.50;;;;;;5023630;28;20012;-84
2021/05/08 15:14:57;;;;;;;;;;;20.90;45.50;;;;;;5025947;28;19921;-84
2021/05/08 15:17:22;;;;;;;;;;;21.10;45.40;;;;;;5023472;28;19909;-84
2021/05/08 15:19:48;;;;;;;;;;;21.30;45.30;;;;;;5024043;28;19985;-84
2021/05/08 15:22:13;;;;;;;;;;;21.50;45.30;;;;;;5024157;28;19909;-85
2021/05/08 15:24:39;;;;;;;;;;;21.60;45.20;;;;;;5036159;28;19948;-84
2021/05/08 15:27:06;;;;;;;;;;;21.70;45.20;;;;;;5061360;28;19909;-84
2021/05/08 15:29:31;;;;;;;;;;;21.70;45.20;;;;;;5026835;28;19968;-84
2021/05/08 15:31:57;;;;;;;;;;;21.50;45.30;;;;;;5023348;28;19909;-85
2021/05/08 15:34:24;;;;;;;;;;;21.50;45.50;;;;;;5022493;28;19909;-85
2021/05/08 15:36:49;;;;;;;;;;;21.50;45.70;;;;;;5022660;28;19933;-84
2021/05/08 15:39:15;;;;;;;;;;;21.50;45.70;;;;;;5023193;28;19955;-85
2021/05/08 15:41:41;;;;;;;;;;;21.50;46.30;;;;;;5037984;28;19916;-85
2021/05/08 15:44:06;;;;;;;;;;;21.60;45.80;;;;;;5024360;28;19914;-84
2021/05/08 15:46:33;;;;;;;;;;;21.60;45.90;;;;;;5041612;28;19909;-84
2021/05/08 15:48:59;;;;;;;;;;;21.50;46.00;;;;;;5041516;28;19920;-84
2021/05/08 15:51:26;;;;;;;;;;;21.50;46.00;;;;;;5041638;28;19913;-84
2021/05/08 15:53:52;;;;;;;;;;;21.50;46.10;;;;;;5042189;28;19909;-84
2021/05/08 15:56:17;;;;;;;;;;;21.50;46.00;;;;;;5042128;28;19932;-84
2021/05/08 15:58:45;;;;;;;;;;;21.50;46.10;;;;;;5040080;28;19932;-84
2021/05/08 16:01:11;;;;;;;;;;;21.40;46.20;;;;;;5041603;28;20332;-84
2021/05/08 16:03:37;;;;;;;;;;;21.30;46.30;;;;;;5031602;28;19917;-84
2021/05/08 16:06:05;;;;;;;;;;;21.10;46.30;;;;;;5021886;28;19917;-84
2021/05/08 16:08:31;;;;;;;;;;;21.00;46.30;;;;;;5020041;28;20465;-84
2021/05/08 16:10:56;;;;;;;;;;;20.90;46.50;;;;;;5034630;28;19956;-84
2021/05/08 16:13:22;;;;;;;;;;;20.90;46.60;;;;;;5019214;28;19917;-84
2021/05/08 16:15:47;;;;;;;;;;;20.90;46.60;;;;;;5017075;28;20386;-84
2021/05/08 16:18:13;;;;;;;;;;;20.80;46.60;;;;;;5016054;28;19909;-83
2021/05/08 16:20:38;;;;;;;;;;;20.80;46.80;;;;;;5020491;28;19916;-85
2021/05/08 16:23:04;;;;;;;;;;;20.70;46.80;;;;;;5022819;28;19965;-84
2021/05/08 16:25:29;;;;;;;;;;;20.70;46.90;;;;;;5041673;28;20313;-85
2021/05/08 16:27:55;;;;;;;;;;;20.70;46.90;;;;;;5041652;28;19936;-84
2021/05/08 16:30:21;;;;;;;;;;;20.70;47.10;;;;;;5041999;28;19931;-85
2021/05/08 16:32:46;;;;;;;;;;;20.50;47.10;;;;;;5041743;28;19916;-85
2021/05/08 16:35:12;;;;;;;;;;;20.50;47.20;;;;;;5042382;28;19909;-85
2021/05/08 16:37:38;;;;;;;;;;;20.40;47.30;;;;;;5035699;28;19927;-85
2021/05/08 16:40:04;;;;;;;;;;;20.40;47.50;;;;;;5021494;28;19910;-85
2021/05/08 16:42:29;;;;;;;;;;;20.30;47.50;;;;;;5020256;28;20332;-85
2021/05/08 16:44:55;;;;;;;;;;;20.20;47.60;;;;;;5021955;28;19974;-84
2021/05/08 16:47:37;;;;;;;;;;;20.20;47.70;;;;;;5021982;28;19910;-84
2021/05/08 16:50:05;;;;;;;;;;;20.00;47.80;;;;;;5021310;28;19916;-84